Time;durP1;ratioP1;P1;durP2;ratioP2;P2;SDS_P1;SDS_P2;PMS_P1;PMS_P2;Temp;Humidity;BMP_temperature;BMP_pressure;BME280_temperature;BME280_humidity;BME280_pressure;Samples;Min_cycle;Max_cycle;Signal;HPM_P1;HPM_P2
2022/08/14 17:12:31;;;;;;;11.07;4.85;;;;;;;28.92;30.95;97776.59;4518766;31;157457;-80
2022/08/14 17:15:03;;;;;;;10.57;5.40;;;;;;;28.92;30.95;97776.59;4485623;32;20092;-80
2022/08/14 17:17:35;;;;;;;11.48;5.05;;;;;;;29.19;30.43;97781.72;4491502;31;20084;-82
2022/08/14 17:20:11;;;;;;;11.77;4.90;;;;;;;29.59;29.86;97792.88;4490029;31;20093;-83
2022/08/14 17:22:48;;;;;;;12.43;5.45;;;;;;;29.80;29.72;97793.41;4507392;31;20096;-81
2022/08/14 17:25:28;;;;;;;11.57;4.72;;;;;;;29.99;29.69;97794.19;4489413;31;20104;-82
2022/08/14 17:28:12;;;;;;;9.90;4.70;;;;;;;30.25;29.23;97787.50;4492241;31;20092;-82
2022/08/14 17:30:59;;;;;;;10.50;5.07;;;;;;;30.34;29.39;97791.53;4472694;31;20134;-79
2022/08/14 17:33:32;;;;;;;12.55;5.05;;;;;;;30.34;29.70;97799.69;4483821;32;20155;-79
2022/08/14 17:36:22;;;;;;;10.20;5.03;;;;;;;30.28;29.98;97799.78;4504171;31;20093;-79
2022/08/14 17:39:03;;;;;;;10.25;4.95;;;;;;;30.27;30.11;97803.53;4485353;32;20370;-80
2022/08/14 17:41:30;;;;;;;10.73;5.22;;;;;;;30.28;30.29;97800.59;4497005;31;20102;-81
2022/08/14 17:44:09;;;;;;;10.88;5.20;;;;;;;30.21;30.52;97802.62;4483028;32;20611;-78
2022/08/14 17:46:48;;;;;;;10.57;4.97;;;;;;;30.03;30.85;97802.69;4469703;32;20429;-80
2022/08/14 17:49:25;;;;;;;10.75;5.40;;;;;;;29.79;31.32;97814.31;4497421;32;20085;-80
2022/08/14 17:52:17;;;;;;;11.33;5.47;;;;;;;30.05;31.06;97811.44;4493456;31;20447;-81
2022/08/14 17:54:48;;;;;;;10.85;5.72;;;;;;;29.93;31.28;97808.69;4485198;32;20176;-80
2022/08/14 17:57:17;;;;;;;11.82;4.93;;;;;;;29.89;31.32;97810.22;4489267;31;20421;-82
2022/08/14 17:59:46;;;;;;;10.85;5.05;;;;;;;30.05;31.08;97806.00;4479564;31;20084;-79
2022/08/14 18:02:13;;;;;;;11.63;5.57;;;;;;;29.91;31.34;97808.91;4506687;31;20087;-80
2022/08/14 18:04:40;;;;;;;;;;;;;;;30.08;31.16;97808.25;4487160;31;20119;-81
2022/08/14 18:07:14;;;;;;;10.75;5.62;;;;;;;29.95;31.35;97807.38;4487624;31;19996;-80
2022/08/14 18:09:42;;;;;;;11.38;5.37;;;;;;;29.96;31.33;97817.22;4486049;31;20087;-80
2022/08/14 18:12:08;;;;;;;10.48;5.00;;;;;;;29.74;31.89;97811.47;4473803;32;20092;-79
2022/08/14 18:14:36;;;;;;;10.43;5.43;;;;;;;29.67;32.09;97809.88;4504181;31;20092;-78
2022/08/14 18:17:03;;;;;;;10.43;5.47;;;;;;;29.37;32.85;97806.09;4488190;32;20112;-79
2022/08/14 18:19:29;;;;;;;;;;;;;;;29.51;32.63;97804.03;4483673;31;20099;-80
2022/08/14 18:21:57;;;;;;;11.57;5.53;;;;;;;29.73;32.28;97800.84;4488226;31;20013;-80
2022/08/14 18:24:23;;;;;;;10.60;5.15;;;;;;;29.65;32.49;97799.28;4497002;31;20100;-80
2022/08/14 18:26:52;;;;;;;10.73;5.20;;;;;;;29.70;32.46;97796.66;4478145;31;20092;-80
2022/08/14 18:29:19;;;;;;;10.82;5.60;;;;;;;29.54;32.77;97790.00;4473925;32;20156;-83
2022/08/14 18:31:44;;;;;;;11.85;5.65;;;;;;;29.58;32.82;97793.09;4475902;31;20139;-82
2022/08/14 18:34:21;;;;;;;12.23;5.85;;;;;;;29.20;33.52;97799.66;4462993;32;20105;-80
2022/08/14 18:36:52;;;;;;;11.40;5.45;;;;;;;29.25;33.50;97801.69;4471978;32;20095;-82
2022/08/14 18:39:35;;;;;;;10.93;5.65;;;;;;;29.30;33.36;97804.53;4472361;32;20345;-81
2022/08/14 18:42:03;;;;;;;11.95;5.70;;;;;;;28.94;34.09;97808.91;4497554;31;20483;-83
2022/08/14 18:44:47;;;;;;;11.18;5.28;;;;;;;29.20;33.72;97805.87;4476359;31;20476;-83
2022/08/14 18:47:12;;;;;;;11.43;5.80;;;;;;;29.17;33.89;97803.66;4489962;31;20123;-83
2022/08/14 18:49:53;;;;;;;11.60;5.70;;;;;;;28.99;34.26;97804.47;4488943;31;20119;-86
2022/08/14 18:52:37;;;;;;;10.80;5.68;;;;;;;28.87;34.53;97811.66;4475923;31;20100;-81
2022/08/14 18:55:17;;;;;;;12.40;6.18;;;;;;;28.94;34.50;97811.63;4491620;31;20119;-83
2022/08/14 18:57:58;;;;;;;11.12;5.53;;;;;;;29.08;34.28;97813.09;4489898;31;20100;-82
2022/08/14 19:00:38;;;;;;;11.70;6.05;;;;;;;29.08;34.34;97807.69;4476143;31;20428;-84
2022/08/14 19:03:04;;;;;;;14.18;5.57;;;;;;;29.09;34.37;97813.94;4478306;31;20107;-81
2022/08/14 19:05:43;;;;;;;10.45;5.07;;;;;;;29.05;34.46;97813.53;4486003;32;20107;-82
2022/08/14 19:08:17;;;;;;;10.85;5.68;;;;;;;29.12;34.36;97808.91;4487002;31;20136;-82
2022/08/14 19:10:49;;;;;;;11.80;5.22;;;;;;;29.15;34.35;97808.47;4459382;32;20111;-82
2022/08/14 19:13:35;;;;;;;12.45;5.50;;;;;;;28.71;35.10;97818.53;4478123;31;20114;-83
2022/08/14 19:16:13;;;;;;;11.10;5.80;;;;;;;28.62;35.39;97817.16;4466888;31;20426;-84
2022/08/14 19:18:51;;;;;;;11.55;6.10;;;;;;;28.54;35.65;97820.16;4475632;31;20118;-83
2022/08/14 19:21:23;;;;;;;12.05;5.72;;;;;;;28.65;35.34;97808.59;4488339;31;20410;-83
2022/08/14 19:24:11;;;;;;;11.52;6.15;;;;;;;28.57;35.55;97811.59;4481963;31;20553;-83
2022/08/14 19:26:37;;;;;;;;;;;;;;;28.53;35.72;97821.19;4470195;32;20109;-83
2022/08/14 19:29:25;;;;;;;10.82;5.70;;;;;;;28.56;35.75;97821.56;4475073;31;20651;-83
2022/08/14 19:31:53;;;;;;;16.17;6.37;;;;;;;28.62;35.66;97814.44;4478795;31;20093;-84
2022/08/14 19:34:41;;;;;;;11.43;5.40;;;;;;;28.58;35.78;97811.34;4494316;31;20137;-83
2022/08/14 19:37:11;;;;;;;11.25;5.50;;;;;;;28.47;36.13;97817.44;4480719;31;20099;-84
2022/08/14 19:39:54;;;;;;;11.88;6.10;;;;;;;28.53;36.00;97810.34;4468518;32;20120;-84
2022/08/14 19:42:27;;;;;;;11.95;5.85;;;;;;;28.61;35.96;97812.78;4496012;31;20084;-83
2022/08/14 19:44:54;;;;;;;12.73;6.28;;;;;;;28.55;36.14;97816.38;4475574;31;20454;-84
2022/08/14 19:47:21;;;;;;;11.07;5.82;;;;;;;28.54;36.19;97810.12;4487852;31;20377;-83
2022/08/14 19:49:49;;;;;;;11.52;5.45;;;;;;;28.48;36.16;97807.47;4484062;31;20097;-83
2022/08/14 19:52:27;;;;;;;;;;;;;;;28.50;36.02;97805.37;4486179;32;20116;-83
2022/08/14 19:54:52;;;;;;;11.35;5.80;;;;;;;28.63;35.81;97808.81;4485621;32;19983;-85
2022/08/14 19:57:21;;;;;;;11.40;5.90;;;;;;;28.52;35.91;97814.94;4469941;32;20451;-84
2022/08/14 19:59:48;;;;;;;11.50;5.80;;;;;;;28.49;35.89;97811.81;4471328;32;20092;-84
2022/08/14 20:02:24;;;;;;;11.18;5.20;;;;;;;28.35;35.90;97811.13;4465991;32;20093;-83
2022/08/14 20:04:56;;;;;;;11.35;6.45;;;;;;;28.37;35.86;97817.97;4486320;32;20480;-82
2022/08/14 20:07:27;;;;;;;11.07;5.18;;;;;;;28.31;35.75;97813.44;4478711;31;20123;-83
2022/08/14 20:09:52;;;;;;;10.77;5.72;;;;;;;28.26;35.79;97810.59;4474321;32;20087;-82
2022/08/14 20:12:19;;;;;;;11.12;5.85;;;;;;;28.30;35.67;97805.53;4473105;31;20452;-79
2022/08/14 20:14:45;;;;;;;11.20;5.43;;;;;;;28.32;35.52;97798.84;4493932;31;20390;-82
2022/08/14 20:17:14;;;;;;;11.20;5.70;;;;;;;28.33;35.47;97808.63;4489530;31;20113;-81
2022/08/14 20:19:39;;;;;;;11.73;5.62;;;;;;;28.33;35.46;97805.09;4480757;31;20605;-83
2022/08/14 20:22:05;;;;;;;11.77;5.80;;;;;;;28.32;35.40;97806.97;4477817;31;20152;-83
2022/08/14 20:24:39;;;;;;;13.88;5.70;;;;;;;28.31;35.40;97805.31;4482854;31;20114;-83
2022/08/14 20:27:37;;;;;;;10.77;5.50;;;;;;;28.31;35.40;97809.91;4477462;31;20096;-83
2022/08/14 20:30:14;;;;;;;10.65;5.40;;;;;;;28.34;35.06;97806.75;4474713;32;20169;-83
2022/08/14 20:32:48;;;;;;;10.73;5.25;;;;;;;28.30;34.97;97806.37;4470516;32;20132;-82
2022/08/14 20:35:44;;;;;;;10.60;5.12;;;;;;;28.28;34.85;97799.50;4477152;31;20114;-82
2022/08/14 20:38:09;;;;;;;10.93;5.22;;;;;;;28.29;34.79;97793.06;4467664;32;20120;-83
2022/08/14 20:40:51;;;;;;;11.15;5.43;;;;;;;28.23;34.76;97794.75;4496462;31;20447;-82
2022/08/14 20:46:14;;;;;;;10.75;5.37;;;;;;;28.00;34.65;97811.59;4465343;32;20107;-82
2022/08/14 20:48:41;;;;;;;12.98;5.62;;;;;;;28.02;34.93;97807.63;4472299;32;20119;-81
2022/08/14 20:51:28;;;;;;;10.93;5.22;;;;;;;28.03;35.06;97792.22;4491259;31;20119;-82
2022/08/14 20:53:59;;;;;;;12.25;5.62;;;;;;;28.08;35.18;97802.38;4465218;32;20124;-82
2022/08/14 20:56:25;;;;;;;11.98;5.80;;;;;;;28.06;35.38;97804.50;4480687;31;20422;-82
2022/08/14 20:58:51;;;;;;;11.12;5.68;;;;;;;27.96;35.71;97807.69;4478871;32;20136;-82
2022/08/14 21:01:19;;;;;;;11.15;5.82;;;;;;;27.95;35.84;97815.00;4483109;31;20134;-82
2022/08/14 21:03:52;;;;;;;13.52;6.10;;;;;;;27.90;36.17;97809.38;4481352;31;20164;-82
2022/08/14 21:06:21;;;;;;;11.90;5.62;;;;;;;27.68;36.91;97813.44;4495646;31;20423;-82
2022/08/14 21:08:48;;;;;;;11.52;5.87;;;;;;;27.77;36.85;97817.56;4476196;31;20125;-80
2022/08/14 21:11:17;;;;;;;12.05;6.03;;;;;;;27.66;37.17;97819.06;4466743;32;20108;-80
2022/08/14 21:13:42;;;;;;;11.68;5.87;;;;;;;27.38;37.83;97806.75;4479959;31;20499;-80
2022/08/14 21:16:09;;;;;;;12.45;5.93;;;;;;;27.16;38.52;97817.00;4494329;31;20076;-79
2022/08/14 21:18:37;;;;;;;11.70;5.70;;;;;;;27.60;37.62;97817.25;4461235;32;20206;-80
2022/08/14 21:21:06;;;;;;;11.63;5.62;;;;;;;27.80;37.25;97819.84;4483828;32;20154;-81
2022/08/14 21:23:34;;;;;;;12.40;5.72;;;;;;;27.70;37.64;97824.88;4471505;32;20111;-80
2022/08/14 21:26:00;;;;;;;11.40;5.65;;;;;;;27.64;37.92;97826.56;4471998;32;20130;-80
2022/08/14 21:28:26;;;;;;;10.88;5.80;;;;;;;27.77;37.62;97829.22;4485850;32;20394;-80
2022/08/14 21:30:53;;;;;;;11.48;5.60;;;;;;;27.68;37.93;97837.81;4471729;32;20096;-81
2022/08/14 21:33:20;;;;;;;11.18;5.70;;;;;;;27.74;37.85;97828.81;4485783;32;20111;-82
2022/08/14 21:35:46;;;;;;;11.30;5.75;;;;;;;27.77;37.89;97826.50;4485728;32;20391;-79
2022/08/14 21:38:14;;;;;;;11.82;6.10;;;;;;;27.87;37.75;97819.78;4486167;32;20145;-81
2022/08/14 21:40:44;;;;;;;12.90;5.45;;;;;;;27.83;37.90;97816.69;4485329;32;20120;-88
2022/08/14 21:43:13;;;;;;;12.00;5.90;;;;;;;27.87;38.02;97822.50;4472149;32;20096;-92
2022/08/14 21:45:38;;;;;;;12.75;5.87;;;;;;;27.83;38.20;97817.53;4485217;32;20093;-86
2022/08/14 21:48:04;;;;;;;12.35;5.68;;;;;;;27.84;38.10;97823.78;4485953;32;20093;-83
2022/08/14 21:50:29;;;;;;;12.85;5.47;;;;;;;27.68;38.17;97825.12;4485484;32;20111;-83
2022/08/14 21:52:55;;;;;;;11.57;5.40;;;;;;;27.72;38.23;97825.50;4485847;32;20146;-84
2022/08/14 21:55:21;;;;;;;11.32;5.57;;;;;;;27.67;38.21;97828.87;4485319;32;20099;-85
2022/08/14 21:57:47;;;;;;;11.43;5.35;;;;;;;27.76;38.09;97826.75;4459149;32;20479;-85
2022/08/14 22:00:21;;;;;;;11.07;5.73;;;;;;;27.68;38.08;97832.38;4487761;32;20088;-84
2022/08/14 22:02:51;;;;;;;10.93;5.22;;;;;;;27.65;38.14;97830.97;4473755;32;20096;-86
2022/08/14 22:05:17;;;;;;;9.93;5.22;;;;;;;27.59;38.14;97824.53;4473503;32;20448;-85
2022/08/14 22:07:44;;;;;;;11.77;5.45;;;;;;;27.64;38.02;97815.75;4487735;32;20127;-85
2022/08/14 22:10:11;;;;;;;11.93;5.80;;;;;;;27.45;38.38;97820.25;4487461;32;20092;-84
2022/08/14 22:12:37;;;;;;;10.57;5.28;;;;;;;27.61;38.06;97818.91;4473180;32;20118;-85
2022/08/14 22:15:04;;;;;;;11.05;5.28;;;;;;;27.30;38.33;97817.81;4487908;32;20144;-85
2022/08/14 22:17:32;;;;;;;11.65;5.18;;;;;;;27.15;38.64;97817.22;4473582;32;20132;-85
2022/08/14 22:20:00;;;;;;;11.25;5.37;;;;;;;27.37;38.28;97820.47;4488110;32;20122;-85
2022/08/14 22:22:28;;;;;;;11.63;5.35;;;;;;;27.43;38.09;97820.47;4473334;32;20100;-86
2022/08/14 22:24:54;;;;;;;10.65;5.07;;;;;;;27.30;38.15;97815.13;4473356;32;20092;-86
2022/08/14 22:27:19;;;;;;;11.00;5.53;;;;;;;27.45;37.99;97820.25;4487372;32;20143;-85
2022/08/14 22:29:45;;;;;;;10.93;5.12;;;;;;;27.46;37.92;97817.31;4487702;32;20490;-86
2022/08/14 22:32:11;;;;;;;10.07;5.00;;;;;;;27.38;37.91;97814.03;4487304;32;20123;-85
2022/08/14 22:34:36;;;;;;;10.52;5.18;;;;;;;27.48;37.64;97817.09;4473198;32;20088;-85
2022/08/14 22:37:01;;;;;;;11.15;4.90;;;;;;;27.37;37.69;97817.78;4473045;32;20101;-84
2022/08/14 22:39:30;;;;;;;11.35;5.07;;;;;;;27.30;37.85;97807.00;4487581;32;20092;-84
2022/08/14 22:41:56;;;;;;;11.88;5.10;;;;;;;27.46;37.69;97813.78;4473212;32;20114;-84
2022/08/14 22:44:27;;;;;;;10.07;5.15;;;;;;;27.38;37.91;97816.75;4487129;32;20112;-85
2022/08/14 22:46:53;;;;;;;10.63;4.95;;;;;;;27.46;37.89;97814.59;4459804;32;20101;-84
2022/08/14 22:49:22;;;;;;;11.07;5.10;;;;;;;27.14;38.66;97805.59;4487215;32;20142;-84
2022/08/14 22:51:48;;;;;;;10.95;4.72;;;;;;;27.33;38.30;97803.84;4487511;32;20115;-85
2022/08/14 22:54:13;;;;;;;10.50;4.93;;;;;;;27.38;38.21;97806.75;4487367;32;20123;-85
2022/08/14 22:56:39;;;;;;;11.25;5.05;;;;;;;27.36;38.31;97799.91;4473314;32;20482;-84
2022/08/14 22:59:06;;;;;;;10.90;4.93;;;;;;;27.39;38.22;97796.75;4472442;32;20534;-84
2022/08/14 23:01:38;;;;;;;11.13;5.50;;;;;;;27.40;38.15;97798.41;4487496;32;20096;-84
2022/08/14 23:04:05;;;;;;;11.12;4.80;;;;;;;27.40;38.13;97793.00;4487037;32;20076;-84
2022/08/14 23:06:31;;;;;;;10.38;4.72;;;;;;;27.36;38.12;97792.63;4487405;32;20476;-84
2022/08/14 23:08:56;;;;;;;10.93;5.07;;;;;;;27.36;38.03;97799.91;4472888;32;20418;-84
2022/08/14 23:11:22;;;;;;;11.00;5.00;;;;;;;27.34;37.96;97796.59;4487068;32;20088;-84
2022/08/14 23:13:47;;;;;;;10.55;5.10;;;;;;;27.34;37.80;97799.28;4486878;32;20092;-84
2022/08/14 23:16:14;;;;;;;10.82;4.65;;;;;;;27.31;37.53;97792.41;4473229;32;20100;-84
2022/08/14 23:18:40;;;;;;;11.68;5.05;;;;;;;27.28;37.52;97789.34;4487480;32;20100;-84
2022/08/14 23:21:09;;;;;;;10.73;5.22;;;;;;;27.25;37.37;97787.88;4487602;32;20348;-86
2022/08/14 23:23:35;;;;;;;10.15;4.57;;;;;;;27.23;37.21;97785.34;4472932;32;20076;-85
2022/08/14 23:26:05;;;;;;;10.25;4.68;;;;;;;27.19;37.13;97786.81;4472770;32;20101;-85
2022/08/14 23:28:31;;;;;;;10.50;5.28;;;;;;;27.18;37.16;97784.38;4473563;32;20168;-86
2022/08/14 23:30:57;;;;;;;10.90;5.10;;;;;;;27.20;37.03;97784.97;4487075;32;20096;-85
2022/08/14 23:33:24;;;;;;;9.75;4.47;;;;;;;27.16;37.00;97784.56;4472944;32;20076;-86
2022/08/14 23:35:50;;;;;;;9.65;4.47;;;;;;;27.18;36.86;97782.47;4486708;32;20104;-85
2022/08/14 23:38:16;;;;;;;10.52;4.53;;;;;;;27.19;36.79;97786.81;4487364;32;20118;-86
2022/08/14 23:40:43;;;;;;;11.82;4.47;;;;;;;27.18;36.86;97777.06;4486909;32;20084;-85
2022/08/14 23:43:14;;;;;;;10.50;5.00;;;;;;;27.18;36.94;97787.06;4473150;32;20193;-85
2022/08/14 23:45:46;;;;;;;10.68;4.30;;;;;;;27.20;36.91;97774.97;4472806;32;20105;-85
2022/08/14 23:48:14;;;;;;;10.18;4.97;;;;;;;27.13;36.90;97779.59;4487207;32;20097;-85
2022/08/14 23:50:41;;;;;;;10.02;4.43;;;;;;;27.13;36.89;97771.47;4472488;32;20088;-84
2022/08/14 23:53:22;;;;;;;10.43;4.22;;;;;;;27.14;36.76;97780.41;4487423;32;20152;-86
2022/08/14 23:55:52;;;;;;;10.30;4.47;;;;;;;27.14;36.71;97775.84;4487164;32;20173;-85
2022/08/14 23:58:19;;;;;;;9.52;4.50;;;;;;;27.11;36.69;97772.75;4473011;32;20107;-84
